Time;durP1;ratioP1;P1;durP2;ratioP2;P2;SDS_P1;SDS_P2;PMS_P1;PMS_P2;Temp;Humidity;BMP_temperature;BMP_pressure;BME280_temperature;BME280_humidity;BME280_pressure;Samples;Min_cycle;Max_cycle;Signal;HPM_P1;HPM_P2
2023/05/26 00:00:56;;;;;;;0.50;0.50;;;;;;;18.20;100.00;99339.50;4974821;28;20638;-64
2023/05/26 00:03:22;;;;;;;0.57;0.57;;;;;;;18.13;100.00;99333.03;4973610;28;20250;-64
2023/05/26 00:05:49;;;;;;;0.50;0.50;;;;;;;18.08;100.00;99340.28;4974832;28;20207;-64
2023/05/26 00:08:17;;;;;;;0.60;0.60;;;;;;;18.05;100.00;99340.47;4974378;28;20207;-64
2023/05/26 00:10:46;;;;;;;0.57;0.57;;;;;;;18.03;100.00;99344.91;4973359;28;20207;-64
2023/05/26 00:13:13;;;;;;;1.00;0.60;;;;;;;18.06;100.00;99345.53;4968756;28;20709;-64
2023/05/26 00:15:40;;;;;;;0.40;0.40;;;;;;;18.02;100.00;99336.31;4974426;28;20209;-65
2023/05/26 00:18:07;;;;;;;1.07;1.07;;;;;;;18.09;100.00;99339.34;4973556;28;20204;-64
2023/05/26 00:20:34;;;;;;;0.50;0.50;;;;;;;18.09;100.00;99340.19;4972013;28;20208;-64
2023/05/26 00:23:01;;;;;;;0.60;0.60;;;;;;;18.03;100.00;99347.50;4971191;28;20207;-64
2023/05/26 00:25:29;;;;;;;0.53;0.53;;;;;;;17.99;100.00;99365.03;4972647;28;20228;-64
2023/05/26 00:27:56;;;;;;;0.50;0.50;;;;;;;17.88;100.00;99348.44;4974405;28;21485;-64
2023/05/26 00:30:23;;;;;;;0.53;0.53;;;;;;;17.94;100.00;99358.44;4973898;28;20274;-64
2023/05/26 00:32:49;;;;;;;0.60;0.60;;;;;;;17.95;100.00;99349.72;4971883;28;20281;-64
2023/05/26 00:35:16;;;;;;;0.43;0.43;;;;;;;17.94;100.00;99342.88;4971980;28;20203;-64
2023/05/26 00:37:43;;;;;;;0.43;0.43;;;;;;;17.92;100.00;99336.94;4972117;28;20206;-64
2023/05/26 00:40:11;;;;;;;0.70;0.70;;;;;;;17.93;100.00;99346.41;4974974;28;20203;-65
2023/05/26 00:42:39;;;;;;;0.70;0.70;;;;;;;17.91;100.00;99348.25;4973413;28;20272;-64
2023/05/26 00:45:07;;;;;;;0.60;0.60;;;;;;;17.91;100.00;99356.03;4960344;28;20211;-65
2023/05/26 00:47:33;;;;;;;0.40;0.40;;;;;;;17.89;100.00;99355.28;4967408;28;20553;-64
2023/05/26 00:50:00;;;;;;;0.63;0.63;;;;;;;17.86;100.00;99355.47;4964100;28;20564;-61
2023/05/26 00:52:28;;;;;;;0.40;0.40;;;;;;;17.83;100.00;99357.31;4963475;28;20592;-64
2023/05/26 00:54:55;;;;;;;0.50;0.50;;;;;;;17.82;100.00;99358.25;4960519;28;20632;-64
2023/05/26 00:57:22;;;;;;;0.70;0.70;;;;;;;17.79;100.00;99350.66;4966681;28;20712;-65
2023/05/26 00:59:50;;;;;;;0.50;0.50;;;;;;;17.79;100.00;99355.84;4970919;28;20206;-64
2023/05/26 01:02:20;;;;;;;0.40;0.40;;;;;;;17.77;100.00;99357.69;4973218;28;20746;-64
2023/05/26 01:04:52;;;;;;;0.40;0.40;;;;;;;17.73;100.00;99353.63;4973508;28;20203;-62
2023/05/26 01:07:19;;;;;;;0.70;0.70;;;;;;;17.71;100.00;99352.03;4973498;28;20230;-64
2023/05/26 01:09:46;;;;;;;0.70;0.70;;;;;;;17.66;100.00;99352.31;4972432;28;20240;-64
2023/05/26 01:12:21;;;;;;;0.50;0.50;;;;;;;17.64;100.00;99351.56;4973670;28;20219;-64
2023/05/26 01:14:55;;;;;;;0.50;0.50;;;;;;;17.61;100.00;99351.75;4971603;28;20206;-64
2023/05/26 01:17:27;;;;;;;0.43;0.43;;;;;;;17.51;100.00;99350.59;4973472;28;20739;-64
2023/05/26 01:20:20;;;;;;;0.73;0.73;;;;;;;17.54;100.00;99354.78;4971437;28;20214;-65
2023/05/26 01:23:06;;;;;;;0.50;0.50;;;;;;;17.35;100.00;99346.44;4952730;28;20200;-64
2023/05/26 01:25:50;;;;;;;0.40;0.40;;;;;;;17.44;100.00;99364.03;4969856;28;20231;-64
2023/05/26 01:28:22;;;;;;;0.40;0.40;;;;;;;17.33;100.00;99351.69;4955747;28;20229;-64
2023/05/26 01:30:50;;;;;;;0.50;0.50;;;;;;;17.33;100.00;99354.28;4964485;28;20227;-64
2023/05/26 01:33:17;;;;;;;0.50;0.50;;;;;;;17.33;100.00;99362.06;4957537;28;20229;-64
2023/05/26 01:35:44;;;;;;;0.50;0.50;;;;;;;17.29;100.00;99363.16;4970590;28;20282;-64
2023/05/26 01:38:12;;;;;;;0.67;0.67;;;;;;;17.26;100.00;99363.31;4972741;28;20207;-64
2023/05/26 01:40:42;;;;;;;0.60;0.60;;;;;;;17.24;100.00;99365.19;4972279;28;20299;-64
2023/05/26 01:43:14;;;;;;;0.40;0.40;;;;;;;17.17;100.00;99367.28;4972208;28;20199;-64
2023/05/26 01:45:47;;;;;;;0.50;0.50;;;;;;;17.12;100.00;99368.47;4971302;28;20212;-64
2023/05/26 01:48:18;;;;;;;0.70;0.70;;;;;;;17.10;100.00;99359.94;4970982;28;20214;-65
2023/05/26 01:50:50;;;;;;;0.60;0.60;;;;;;;16.98;100.00;99363.25;4972669;28;20286;-64
2023/05/26 01:53:21;;;;;;;0.50;0.50;;;;;;;16.82;100.00;99350.34;4972456;28;20223;-64
2023/05/26 01:55:52;;;;;;;0.53;0.53;;;;;;;16.88;100.00;99364.69;4971735;28;20210;-64
2023/05/26 01:58:21;;;;;;;0.60;0.60;;;;;;;16.83;100.00;99362.38;4972646;28;20211;-64
2023/05/26 02:00:49;;;;;;;0.50;0.50;;;;;;;16.72;100.00;99364.72;4969721;28;20199;-64
2023/05/26 02:03:16;;;;;;;0.60;0.60;;;;;;;16.66;100.00;99367.63;4972613;28;20200;-64
2023/05/26 02:05:43;;;;;;;0.50;0.50;;;;;;;16.66;100.00;99371.06;4972617;28;20211;-64
2023/05/26 02:08:11;;;;;;;0.60;0.60;;;;;;;16.64;100.00;99372.88;4970250;28;20208;-64
2023/05/26 02:10:38;;;;;;;0.67;0.67;;;;;;;16.63;100.00;99371.25;4972599;28;20251;-64
2023/05/26 02:13:05;;;;;;;0.50;0.50;;;;;;;16.62;100.00;99374.75;4969367;28;20235;-64
2023/05/26 02:15:32;;;;;;;0.50;0.50;;;;;;;16.58;100.00;99374.97;4960268;28;20671;-64
2023/05/26 02:18:00;;;;;;;0.43;0.43;;;;;;;16.53;100.00;99387.31;4956345;28;20251;-64
2023/05/26 02:20:27;;;;;;;0.50;0.50;;;;;;;16.46;100.00;99379.06;4969464;28;20667;-64
2023/05/26 02:22:53;;;;;;;0.70;0.70;;;;;;;16.47;100.00;99377.31;4968857;28;20270;-64
2023/05/26 02:25:20;;;;;;;0.57;0.57;;;;;;;16.41;100.00;99380.22;4961178;28;20231;-64
2023/05/26 02:27:47;;;;;;;0.60;0.60;;;;;;;16.29;100.00;99368.78;4963803;28;20680;-65
2023/05/26 02:30:14;;;;;;;0.80;0.80;;;;;;;16.35;100.00;99376.19;4963541;28;20674;-64
2023/05/26 02:32:41;;;;;;;0.50;0.50;;;;;;;16.32;100.00;99381.53;4961645;28;20707;-64
2023/05/26 02:35:10;;;;;;;0.50;0.50;;;;;;;16.29;100.00;99386.88;4961207;28;20286;-64
2023/05/26 02:37:37;;;;;;;0.43;0.43;;;;;;;16.19;100.00;99396.03;4969834;28;20204;-65
2023/05/26 02:40:05;;;;;;;0.53;0.53;;;;;;;16.12;100.00;99389.56;4970877;28;20211;-64
2023/05/26 02:42:32;;;;;;;0.50;0.50;;;;;;;16.07;100.00;99386.34;4970957;28;20282;-64
2023/05/26 02:44:59;;;;;;;0.50;0.50;;;;;;;16.04;100.00;99386.50;4972408;28;20207;-64
2023/05/26 02:47:25;;;;;;;0.60;0.60;;;;;;;16.03;100.00;99390.00;4972054;28;20218;-64
2023/05/26 02:49:52;;;;;;;0.50;0.50;;;;;;;16.02;100.00;99383.19;4970268;28;20589;-64
2023/05/26 02:52:21;;;;;;;0.60;0.60;;;;;;;15.85;100.00;99353.03;4968730;28;20212;-64
2023/05/26 02:54:47;;;;;;;0.40;0.40;;;;;;;16.07;100.00;99381.19;4969692;28;20195;-64
2023/05/26 02:57:14;;;;;;;0.50;0.50;;;;;;;16.05;100.00;99383.03;4971698;28;20203;-64
2023/05/26 02:59:41;;;;;;;0.80;0.80;;;;;;;16.06;100.00;99380.34;4970158;28;20218;-64
2023/05/26 03:02:08;;;;;;;0.40;0.40;;;;;;;16.06;100.00;99382.94;4970362;28;20218;-64
2023/05/26 03:04:34;;;;;;;0.40;0.40;;;;;;;16.09;100.00;99389.72;4972165;28;20581;-64
2023/05/26 03:07:02;;;;;;;0.60;0.60;;;;;;;16.05;100.00;99385.59;4969033;28;20214;-64
2023/05/26 03:09:30;;;;;;;0.40;0.40;;;;;;;16.12;100.00;99399.91;4971583;28;20290;-64
2023/05/26 03:11:56;;;;;;;0.57;0.57;;;;;;;16.10;100.00;99392.19;4969573;28;20207;-64
2023/05/26 03:14:23;;;;;;;0.63;0.63;;;;;;;16.09;100.00;99392.31;4971159;28;20226;-64
2023/05/26 03:16:51;;;;;;;0.50;0.50;;;;;;;16.07;100.00;99391.53;4964891;28;20206;-64
2023/05/26 03:19:18;;;;;;;0.60;0.60;;;;;;;15.98;100.00;99377.34;4954409;28;20286;-64
2023/05/26 03:21:45;;;;;;;0.50;0.50;;;;;;;16.06;100.00;99393.28;4958449;28;20400;-64
2023/05/26 03:24:12;;;;;;;0.47;0.47;;;;;;;16.05;100.00;99388.19;4953477;28;20659;-64
2023/05/26 03:26:40;;;;;;;0.60;0.60;;;;;;;16.07;100.00;99391.53;4960840;28;20199;-64
2023/05/26 03:29:07;;;;;;;0.40;0.40;;;;;;;16.06;100.00;99389.84;4965281;28;20242;-64
2023/05/26 03:31:34;;;;;;;0.50;0.50;;;;;;;16.09;100.00;99397.47;4971124;28;20207;-64
2023/05/26 03:34:00;;;;;;;0.90;0.90;;;;;;;16.13;100.00;99396.38;4971467;28;20634;-64
2023/05/26 03:36:28;;;;;;;0.40;0.40;;;;;;;16.12;100.00;99381.78;4966995;28;20586;-64
2023/05/26 03:38:55;;;;;;;0.50;0.50;;;;;;;15.98;100.00;99368.75;4969112;28;20210;-64
2023/05/26 03:41:22;;;;;;;0.57;0.57;;;;;;;16.09;100.00;99384.53;4968919;28;20667;-64
2023/05/26 03:43:50;;;;;;;0.60;0.60;;;;;;;16.06;100.00;99384.66;4970684;28;20332;-64
2023/05/26 03:46:17;;;;;;;0.60;0.60;;;;;;;16.00;100.00;99382.41;4970253;28;20266;-64
2023/05/26 03:48:44;;;;;;;0.50;0.50;;;;;;;15.89;100.00;99383.00;4964966;28;20229;-64
2023/05/26 03:51:10;;;;;;;0.40;0.40;;;;;;;15.89;100.00;99387.31;4971070;28;20214;-65
2023/05/26 03:53:37;;;;;;;0.53;0.53;;;;;;;15.90;100.00;99384.66;4971207;28;20219;-64
2023/05/26 03:56:05;;;;;;;0.50;0.50;;;;;;;15.91;100.00;99390.66;4971144;28;20297;-64
2023/05/26 03:58:31;;;;;;;0.50;0.50;;;;;;;15.94;100.00;99398.25;4971680;28;20204;-64
2023/05/26 04:01:00;;;;;;;0.50;0.50;;;;;;;15.96;100.00;99393.84;4970925;28;20203;-64
2023/05/26 04:03:27;;;;;;;0.60;0.60;;;;;;;15.97;100.00;99401.50;4970182;28;20223;-64
2023/05/26 04:05:54;;;;;;;0.50;0.50;;;;;;;15.92;100.00;99388.00;4969642;28;20207;-64
2023/05/26 04:08:21;;;;;;;0.60;0.60;;;;;;;16.07;100.00;99407.03;4970542;28;20738;-64
2023/05/26 04:10:47;;;;;;;0.60;0.60;;;;;;;16.13;100.00;99401.53;4964203;28;20698;-63
2023/05/26 04:13:14;;;;;;;0.50;0.50;;;;;;;16.17;100.00;99406.47;4961910;28;20220;-64
2023/05/26 04:15:42;;;;;;;0.40;0.40;;;;;;;16.19;100.00;99406.38;4960911;28;20291;-64
2023/05/26 04:18:10;;;;;;;0.80;0.80;;;;;;;16.20;100.00;99403.72;4969686;28;20207;-64
2023/05/26 04:20:37;;;;;;;0.60;0.60;;;;;;;16.13;100.00;99397.22;4969667;28;20648;-64
2023/05/26 04:23:04;;;;;;;0.50;0.50;;;;;;;16.08;100.00;99400.97;4970917;28;20215;-64
2023/05/26 04:25:31;;;;;;;0.60;0.60;;;;;;;16.19;100.00;99411.56;4969568;28;20231;-64
2023/05/26 04:27:58;;;;;;;0.50;0.50;;;;;;;16.21;100.00;99417.50;4971339;28;20207;-64
2023/05/26 04:30:25;;;;;;;0.53;0.53;;;;;;;16.21;100.00;99413.19;4971158;28;20208;-64
2023/05/26 04:32:52;;;;;;;0.50;0.50;;;;;;;16.22;100.00;99409.66;4971024;28;20218;-64
2023/05/26 04:35:20;;;;;;;0.90;0.90;;;;;;;16.29;100.00;99412.75;4970463;28;20301;-64
2023/05/26 04:37:48;;;;;;;0.50;0.50;;;;;;;16.31;100.00;99403.16;4972349;28;20208;-64
2023/05/26 04:40:15;;;;;;;0.40;0.40;;;;;;;16.37;100.00;99420.94;4974509;28;20210;-64
2023/05/26 04:42:43;;;;;;;0.53;0.53;;;;;;;16.43;100.00;99415.44;4974096;28;20200;-64
2023/05/26 04:45:10;;;;;;;0.50;0.50;;;;;;;16.51;100.00;99418.44;4970104;28;20639;-65
2023/05/26 04:47:37;;;;;;;0.60;0.60;;;;;;;16.60;100.00;99410.22;4974020;28;20199;-61
2023/05/26 04:50:06;;;;;;;0.40;0.40;;;;;;;16.59;100.00;99411.13;4971271;28;20663;-61
2023/05/26 04:52:34;;;;;;;0.50;0.50;;;;;;;16.64;100.00;99418.66;4973590;28;20259;-61
2023/05/26 04:55:01;;;;;;;0.63;0.63;;;;;;;16.68;100.00;99421.00;4974101;28;20215;-61
2023/05/26 04:57:28;;;;;;;0.60;0.60;;;;;;;16.73;100.00;99413.81;4973915;28;20625;-61
2023/05/26 04:59:55;;;;;;;0.60;0.60;;;;;;;16.82;100.00;99419.41;4974036;28;20199;-61
2023/05/26 05:02:22;;;;;;;0.67;0.67;;;;;;;16.89;100.00;99418.16;4973504;28;20290;-61
2023/05/26 05:04:48;;;;;;;0.60;0.60;;;;;;;16.90;100.00;99423.22;4967629;28;20202;-61
2023/05/26 05:07:16;;;;;;;0.50;0.50;;;;;;;16.85;100.00;99401.09;4971785;28;20200;-61
2023/05/26 05:09:44;;;;;;;0.63;0.63;;;;;;;17.04;100.00;99418.13;4967945;28;20239;-60
2023/05/26 05:12:11;;;;;;;0.50;0.50;;;;;;;17.09;100.00;99416.09;4969556;28;20214;-61
2023/05/26 05:14:37;;;;;;;0.60;0.60;;;;;;;17.19;100.00;99416.41;4971582;28;20623;-61
2023/05/26 05:17:05;;;;;;;0.77;0.77;;;;;;;17.26;100.00;99412.56;4971888;28;20683;-61
2023/05/26 05:19:32;;;;;;;0.50;0.50;;;;;;;17.31;100.00;99411.38;4973420;28;20294;-62
2023/05/26 05:21:59;;;;;;;0.47;0.47;;;;;;;17.40;100.00;99415.19;4972856;28;20211;-62
2023/05/26 05:24:25;;;;;;;0.40;0.40;;;;;;;17.44;100.00;99416.69;4972721;28;20219;-63
2023/05/26 05:26:53;;;;;;;0.40;0.40;;;;;;;17.52;100.00;99413.63;4973407;28;20199;-62
2023/05/26 05:29:20;;;;;;;0.50;0.50;;;;;;;17.59;100.00;99409.81;4973034;28;20210;-62
2023/05/26 05:31:47;;;;;;;0.60;0.60;;;;;;;17.64;100.00;99408.59;4973300;28;20208;-61
2023/05/26 05:34:14;;;;;;;0.50;0.50;;;;;;;17.69;100.00;99411.78;4973279;28;20223;-61
2023/05/26 05:36:40;;;;;;;0.60;0.60;;;;;;;17.71;100.00;99415.09;4973531;28;20273;-62
2023/05/26 05:39:07;;;;;;;0.50;0.50;;;;;;;17.76;100.00;99405.31;4972993;28;20671;-62
2023/05/26 05:41:35;;;;;;;0.70;0.70;;;;;;;17.79;100.00;99407.72;4971800;28;20298;-61
2023/05/26 05:44:03;;;;;;;0.53;0.53;;;;;;;17.86;100.00;99408.19;4972580;28;20195;-61
2023/05/26 05:46:30;;;;;;;0.60;0.60;;;;;;;17.90;100.00;99409.66;4972908;28;20651;-61
2023/05/26 05:48:57;;;;;;;0.60;0.60;;;;;;;17.94;100.00;99405.13;4972544;28;20262;-61
2023/05/26 05:51:23;;;;;;;0.60;0.60;;;;;;;18.04;100.00;99416.59;4972707;28;20211;-62
2023/05/26 05:53:50;;;;;;;0.60;0.60;;;;;;;18.16;100.00;99410.66;4972527;28;20650;-60
2023/05/26 05:56:17;;;;;;;0.50;0.50;;;;;;;18.23;100.00;99417.16;4972679;28;20199;-60
2023/05/26 05:58:44;;;;;;;0.80;0.80;;;;;;;18.34;100.00;99413.00;4972640;28;20736;-61
2023/05/26 06:01:12;;;;;;;0.60;0.60;;;;;;;18.29;100.00;99394.25;4972663;28;20204;-62
2023/05/26 06:03:38;;;;;;;0.50;0.50;;;;;;;18.46;100.00;99418.34;4972506;28;20257;-62
2023/05/26 06:06:06;;;;;;;0.40;0.40;;;;;;;18.50;100.00;99425.06;4964804;28;20268;-62
2023/05/26 06:08:32;;;;;;;0.63;0.63;;;;;;;18.54;100.00;99427.38;4972567;28;20293;-63
2023/05/26 06:10:59;;;;;;;0.50;0.50;;;;;;;18.62;100.00;99430.31;4971154;28;20267;-62
2023/05/26 06:13:26;;;;;;;0.53;0.53;;;;;;;18.71;100.00;99429.72;4972468;28;20244;-61
2023/05/26 06:15:53;;;;;;;0.60;0.60;;;;;;;18.72;100.00;99426.22;4972332;28;20217;-64
2023/05/26 06:18:21;;;;;;;0.40;0.40;;;;;;;18.87;100.00;99446.00;4971208;28;20226;-62
2023/05/26 06:20:48;;;;;;;0.50;0.50;;;;;;;18.87;100.00;99440.81;4972643;28;20217;-62
2023/05/26 06:23:14;;;;;;;0.40;0.40;;;;;;;18.97;100.00;99446.25;4971985;28;20211;-62
2023/05/26 06:25:41;;;;;;;0.50;0.50;;;;;;;19.02;100.00;99456.38;4957790;28;20235;-62
2023/05/26 06:28:08;;;;;;;0.60;0.60;;;;;;;18.87;100.00;99425.22;4954267;28;20209;-62
2023/05/26 06:30:35;;;;;;;0.50;0.50;;;;;;;19.07;100.00;99443.91;4953331;29;20212;-62
2023/05/26 06:33:02;;;;;;;0.80;0.80;;;;;;;19.10;100.00;99443.72;4953865;28;20632;-62
2023/05/26 06:35:30;;;;;;;0.50;0.50;;;;;;;19.08;100.00;99445.59;4953768;28;20380;-63
2023/05/26 06:37:57;;;;;;;0.50;0.50;;;;;;;19.14;100.00;99448.63;4949854;29;20737;-62
2023/05/26 06:40:24;;;;;;;0.77;0.77;;;;;;;19.10;100.00;99451.50;4952484;29;20215;-62
2023/05/26 06:42:51;;;;;;;0.60;0.60;;;;;;;19.16;100.00;99446.75;4953051;29;20257;-62
2023/05/26 06:45:18;;;;;;;0.50;0.50;;;;;;;19.22;100.00;99440.34;4952706;28;20202;-62
2023/05/26 06:47:47;;;;;;;0.83;0.83;;;;;;;19.29;100.00;99439.00;4950675;29;20213;-62
2023/05/26 06:50:14;;;;;;;0.60;0.60;;;;;;;19.35;100.00;99436.00;4952194;29;20202;-62
2023/05/26 06:52:42;;;;;;;0.50;0.50;;;;;;;19.35;100.00;99443.81;4952159;28;20206;-62
2023/05/26 06:55:09;;;;;;;0.60;0.60;;;;;;;19.49;100.00;99445.53;4952828;28;20223;-62
2023/05/26 06:57:36;;;;;;;0.50;0.50;;;;;;;19.62;100.00;99455.00;4953494;28;20226;-62
2023/05/26 07:00:04;;;;;;;0.30;0.30;;;;;;;19.75;100.00;99461.06;4952178;28;20672;-62
2023/05/26 07:02:30;;;;;;;0.50;0.50;;;;;;;19.89;100.00;99466.19;4953501;28;20529;-61
2023/05/26 07:04:58;;;;;;;0.67;0.47;;;;;;;19.92;100.00;99479.00;4943479;28;20602;-62
2023/05/26 07:07:25;;;;;;;0.50;0.50;;;;;;;20.00;100.00;99477.66;4952608;29;20216;-62
2023/05/26 07:09:55;;;;;;;0.50;0.50;;;;;;;20.09;100.00;99475.25;4951468;28;20218;-62
2023/05/26 07:12:22;;;;;;;0.43;0.43;;;;;;;20.15;100.00;99489.63;4951712;29;20206;-62
2023/05/26 07:14:49;;;;;;;0.90;0.60;;;;;;;20.25;100.00;99475.06;4951260;29;20227;-61
2023/05/26 07:17:16;;;;;;;0.50;0.50;;;;;;;20.38;100.00;99478.50;4954014;28;20563;-61
2023/05/26 07:19:43;;;;;;;0.30;0.30;;;;;;;20.43;100.00;99479.00;4953929;28;20218;-61
2023/05/26 07:22:10;;;;;;;0.73;0.73;;;;;;;20.55;100.00;99485.97;4952462;28;20278;-61
2023/05/26 07:24:37;;;;;;;0.57;0.57;;;;;;;20.57;100.00;99481.50;4958193;28;20269;-61
2023/05/26 07:27:06;;;;;;;0.50;0.50;;;;;;;20.58;100.00;99488.34;4970199;28;20203;-61
2023/05/26 07:29:34;;;;;;;0.40;0.40;;;;;;;20.62;100.00;99482.00;4971906;28;20222;-60
2023/05/26 07:32:01;;;;;;;0.40;0.40;;;;;;;20.70;100.00;99471.88;4971233;28;20265;-60
2023/05/26 07:34:28;;;;;;;0.53;0.53;;;;;;;20.81;100.00;99478.91;4971933;28;20235;-60
2023/05/26 07:36:55;;;;;;;0.40;0.40;;;;;;;20.81;100.00;99476.31;4970906;28;20210;-60
2023/05/26 07:39:22;;;;;;;0.40;0.40;;;;;;;20.79;100.00;99486.88;4970603;28;20207;-61
2023/05/26 07:41:49;;;;;;;0.40;0.40;;;;;;;20.87;100.00;99473.31;4971785;28;20583;-60
2023/05/26 07:44:17;;;;;;;0.50;0.50;;;;;;;20.92;100.00;99477.25;4971488;28;20238;-60
2023/05/26 07:46:44;;;;;;;0.60;0.60;;;;;;;20.79;100.00;99479.03;4970593;28;20259;-61
2023/05/26 07:49:12;;;;;;;0.57;0.57;;;;;;;20.80;100.00;99479.88;4971473;28;20211;-61
2023/05/26 07:51:39;;;;;;;0.37;0.37;;;;;;;20.82;100.00;99481.44;4971438;28;20571;-60
2023/05/26 07:54:06;;;;;;;0.70;0.70;;;;;;;20.78;100.00;99477.38;4964181;28;20230;-60
2023/05/26 07:56:33;;;;;;;0.93;0.93;;;;;;;20.74;100.00;99481.13;4971957;28;20206;-61
2023/05/26 07:59:00;;;;;;;0.50;0.50;;;;;;;20.83;100.00;99477.91;4971917;28;20674;-61
2023/05/26 08:01:28;;;;;;;0.60;0.60;;;;;;;20.89;100.00;99472.25;4971637;28;20207;-61
2023/05/26 08:03:55;;;;;;;0.50;0.50;;;;;;;20.92;100.00;99476.41;4971902;28;20255;-61
2023/05/26 08:06:21;;;;;;;0.30;0.30;;;;;;;21.00;100.00;99481.06;4972109;28;20214;-61
2023/05/26 08:08:48;;;;;;;0.40;0.40;;;;;;;21.03;99.07;99488.69;4970695;28;20230;-61
2023/05/26 08:11:16;;;;;;;0.50;0.50;;;;;;;21.10;99.52;99479.50;4974863;28;20672;-60
2023/05/26 08:13:43;;;;;;;0.47;0.47;;;;;;;21.13;100.00;99479.28;4975617;28;20215;-61
2023/05/26 08:16:10;;;;;;;0.40;0.40;;;;;;;21.28;100.00;99493.81;4974565;28;20282;-61
2023/05/26 08:18:38;;;;;;;0.50;0.50;;;;;;;21.24;100.00;99492.38;4974706;28;20718;-61
2023/05/26 08:21:05;;;;;;;0.43;0.43;;;;;;;21.32;100.00;99495.25;4975228;28;20210;-61
2023/05/26 08:23:31;;;;;;;0.40;0.40;;;;;;;21.37;100.00;99504.41;4974813;28;20207;-60
2023/05/26 08:25:58;;;;;;;0.47;0.47;;;;;;;21.38;100.00;99506.09;4974448;28;20227;-61
2023/05/26 08:28:25;;;;;;;0.60;0.60;;;;;;;21.37;100.00;99498.34;4973386;28;20203;-61
2023/05/26 08:30:52;;;;;;;0.63;0.63;;;;;;;21.28;100.00;99499.88;4974939;28;20203;-61
2023/05/26 08:33:18;;;;;;;0.50;0.50;;;;;;;20.93;99.77;99457.22;4974988;28;20210;-61
2023/05/26 08:35:47;;;;;;;0.40;0.40;;;;;;;20.93;100.00;99498.94;4973673;28;20223;-61
2023/05/26 08:38:13;;;;;;;0.37;0.37;;;;;;;21.04;100.00;99490.31;4974718;28;20298;-61
2023/05/26 08:40:40;;;;;;;0.50;0.43;;;;;;;21.11;100.00;99496.78;4978129;28;20682;-61
2023/05/26 08:43:08;;;;;;;0.40;0.40;;;;;;;21.09;100.00;99494.31;4974903;28;20210;-60
2023/05/26 08:45:34;;;;;;;0.50;0.50;;;;;;;21.11;99.94;99491.59;4974761;28;20234;-61
2023/05/26 08:48:02;;;;;;;0.40;0.40;;;;;;;21.14;100.00;99496.56;4974667;28;20290;-61
2023/05/26 08:50:31;;;;;;;0.47;0.47;;;;;;;21.24;100.00;99497.59;4974825;28;20286;-61
2023/05/26 08:53:01;;;;;;;2.80;0.60;;;;;;;21.37;100.00;99499.19;4974306;28;20246;-60
2023/05/26 08:55:28;;;;;;;0.50;0.50;;;;;;;21.45;100.00;99496.03;4973368;28;20310;-61
2023/05/26 08:57:58;;;;;;;0.40;0.40;;;;;;;21.50;99.38;99488.69;4973098;28;20230;-61
2023/05/26 09:00:29;;;;;;;0.40;0.40;;;;;;;21.58;97.00;99491.59;4974381;28;20253;-61
2023/05/26 09:02:56;;;;;;;0.40;0.40;;;;;;;21.55;96.71;99489.16;4974428;28;20714;-61
2023/05/26 09:05:23;;;;;;;0.30;0.30;;;;;;;21.61;96.35;99487.91;4974205;28;20206;-61
2023/05/26 09:07:50;;;;;;;0.40;0.40;;;;;;;21.67;93.13;99490.06;4971710;28;20265;-61
2023/05/26 09:10:25;;;;;;;0.40;0.40;;;;;;;21.71;91.80;99489.69;4973986;28;20203;-61
2023/05/26 09:13:02;;;;;;;0.47;0.47;;;;;;;21.67;93.14;99467.41;4973668;28;20203;-61
2023/05/26 09:15:34;;;;;;;0.60;0.60;;;;;;;21.90;92.89;99477.00;4973518;28;20309;-62
2023/05/26 09:18:05;;;;;;;0.40;0.40;;;;;;;22.07;93.60;99475.69;4973259;28;20266;-61
2023/05/26 09:20:32;;;;;;;0.50;0.50;;;;;;;22.29;93.08;99467.06;4974069;28;20235;-61
2023/05/26 09:22:59;;;;;;;0.50;0.50;;;;;;;22.44;90.46;99471.09;4973446;28;20564;-61
2023/05/26 09:25:30;;;;;;;0.40;0.40;;;;;;;22.64;88.41;99472.16;4973229;28;20227;-61
2023/05/26 09:28:01;;;;;;;0.37;0.37;;;;;;;22.78;nan;99472.75;4973478;28;20297;-62
2023/05/26 09:30:29;;;;;;;0.30;0.30;;;;;;;22.82;85.38;99471.56;4973941;28;20290;-61
2023/05/26 09:32:56;;;;;;;0.47;0.47;;;;;;;22.88;90.41;99471.06;4973592;28;20286;-61
2023/05/26 09:35:23;;;;;;;0.40;0.40;;;;;;;23.04;89.50;99460.22;4973464;28;20215;-61
2023/05/26 09:37:50;;;;;;;0.20;0.20;;;;;;;23.18;89.87;99457.34;4973720;28;20633;-61
2023/05/26 09:40:18;;;;;;;0.40;0.40;;;;;;;23.29;85.93;99453.84;4973789;28;20274;-61
2023/05/26 09:42:53;;;;;;;0.30;0.30;;;;;;;23.44;85.16;99426.44;4973797;28;20702;-61
2023/05/26 09:45:20;;;;;;;0.40;0.40;;;;;;;23.78;83.67;99454.09;4969517;28;20207;-60
2023/05/26 09:47:52;;;;;;;0.50;0.50;;;;;;;24.07;82.65;99445.59;4973361;28;20207;-61
2023/05/26 09:50:19;;;;;;;0.33;0.33;;;;;;;24.25;83.32;99446.66;4973290;28;20691;-61
2023/05/26 09:52:47;;;;;;;0.30;0.30;;;;;;;24.40;79.98;99432.22;4972595;28;20664;-61
2023/05/26 09:55:14;;;;;;;0.40;0.40;;;;;;;24.39;77.31;99435.84;4973178;28;20302;-61
2023/05/26 09:57:42;;;;;;;0.50;0.50;;;;;;;24.41;76.55;99429.50;4969886;28;21112;-61
2023/05/26 10:00:12;;;;;;;0.30;0.30;;;;;;;24.61;77.89;99424.31;4970791;28;20211;-61
2023/05/26 10:02:40;;;;;;;0.40;0.40;;;;;;;24.80;78.71;99409.44;4972755;28;20208;-61
2023/05/26 10:05:08;;;;;;;0.40;0.40;;;;;;;25.11;77.21;99422.47;4972853;28;20203;-62
2023/05/26 10:07:36;;;;;;;0.40;0.40;;;;;;;25.19;75.97;99433.94;4971688;28;20211;-61
2023/05/26 10:10:03;;;;;;;0.40;0.40;;;;;;;25.39;75.33;99425.13;4971802;28;20298;-61
2023/05/26 10:12:32;;;;;;;0.27;0.27;;;;;;;25.49;74.24;99417.22;4971992;28;20210;-62
2023/05/26 10:15:00;;;;;;;0.20;0.20;;;;;;;25.53;73.32;99418.63;4972086;28;20231;-61
2023/05/26 10:17:28;;;;;;;0.40;0.40;;;;;;;25.80;73.83;99410.84;4972054;28;20682;-62
2023/05/26 10:19:56;;;;;;;0.40;0.40;;;;;;;25.77;68.50;99421.63;4972959;28;20710;-60
2023/05/26 10:22:29;;;;;;;0.40;0.40;;;;;;;25.65;71.32;99412.25;4971404;28;20197;-62
2023/05/26 10:25:01;;;;;;;0.20;0.20;;;;;;;25.78;67.72;99418.03;4971535;28;20234;-62
2023/05/26 10:27:34;;;;;;;0.20;0.20;;;;;;;25.89;67.95;99404.72;4971654;28;20211;-61
2023/05/26 10:30:08;;;;;;;2.00;1.90;;;;;;;25.82;69.15;99381.78;4971151;28;20708;-61
2023/05/26 10:32:52;;;;;;;1.30;1.30;;;;;;;26.04;66.31;99390.13;4970741;28;20293;-62
2023/05/26 10:35:26;;;;;;;0.30;0.30;;;;;;;25.99;68.47;99363.47;4970821;28;20698;-62
2023/05/26 10:38:10;;;;;;;0.20;0.20;;;;;;;26.20;63.64;99379.06;4971039;28;20211;-62
2023/05/26 10:40:40;;;;;;;0.30;0.30;;;;;;;26.32;65.13;99369.19;4972096;28;20210;-63
2023/05/26 10:43:14;;;;;;;0.30;0.30;;;;;;;26.47;68.92;99365.91;4972269;28;20742;-63
2023/05/26 10:45:44;;;;;;;0.40;0.40;;;;;;;26.60;65.96;99374.25;4972376;28;20624;-63
2023/05/26 10:48:13;;;;;;;0.30;0.30;;;;;;;26.69;61.70;99362.00;4972964;28;20212;-63
2023/05/26 10:51:17;;;;;;;0.60;0.60;;;;;;;26.86;62.13;99358.59;4972580;28;20631;-63
2023/05/26 10:53:45;;;;;;;0.50;0.50;;;;;;;26.98;63.49;99362.66;4971853;28;20207;-62
2023/05/26 10:56:13;;;;;;;0.30;0.30;;;;;;;27.06;59.68;99351.38;4972278;28;20238;-62
2023/05/26 10:58:42;;;;;;;0.30;0.30;;;;;;;26.84;54.65;99349.22;4972775;28;20231;-63
2023/05/26 11:01:15;;;;;;;0.30;0.30;;;;;;;26.93;58.14;99345.66;4970692;28;20212;-63
2023/05/26 11:03:45;;;;;;;0.40;0.40;;;;;;;27.06;59.00;99344.31;4972479;28;20322;-63
2023/05/26 11:06:13;;;;;;;0.30;0.30;;;;;;;27.14;58.84;99325.94;4970253;28;20294;-62
2023/05/26 11:08:41;;;;;;;0.20;0.20;;;;;;;27.24;58.62;99332.94;4971043;28;20639;-63
2023/05/26 11:11:10;;;;;;;0.30;0.30;;;;;;;27.26;57.25;99317.81;4971391;28;20207;-62
2023/05/26 11:13:45;;;;;;;0.20;0.20;;;;;;;27.50;58.82;99321.44;4970831;28;20270;-62
2023/05/26 11:16:17;;;;;;;0.60;0.60;;;;;;;27.61;59.75;99312.47;4970156;28;20226;-61
2023/05/26 11:18:49;;;;;;;0.30;0.30;;;;;;;27.57;58.95;99297.94;4971147;28;20215;-61
2023/05/26 11:21:17;;;;;;;0.33;0.33;;;;;;;27.65;57.48;99287.47;4970604;28;20199;-61
2023/05/26 11:23:45;;;;;;;0.30;0.30;;;;;;;27.77;53.88;99306.44;4971120;28;20203;-61
2023/05/26 11:26:16;;;;;;;0.20;0.20;;;;;;;27.81;53.40;99302.53;4970735;28;20298;-61
2023/05/26 11:28:44;;;;;;;0.13;0.13;;;;;;;27.95;57.03;99300.09;4968987;28;20756;-61
2023/05/26 11:31:15;;;;;;;0.20;0.20;;;;;;;28.08;57.20;99300.50;4970698;28;20247;-61